Quintero, Chile

6:27 PM CLST on October 01, 2014 (GMT -0300)
Arturo Merino Benitez International | Change Station
CLOSE
Current Station
Airport
Location: Santiago,
Elevation: 1562 ft
Nearby Weather Stations

Elev 1562 ft 33.39 °S, 70.79 °W | Updated 27 minutes ago

Scattered Clouds
Scattered Clouds
75 °F
Feels Like 75 °F
N
10
Wind Variable Wind from South

Today
High -- | Low -- °F
--% Chance of Precip.
Yesterday
High -- | Low -- °F
Precip. -- in
7:23 AM 7:48 PM
Waxing Crescent, 51% visible
Pressure 29.95 in
Visibility 6.2 miles
Clouds Few 18000 ft
Scattered Clouds 23000 ft
Dew Point 39 °F
Humidity 27%
Rainfall 0.00 in
Snow Depth Not available.
UV 2 out of 12
Pollen Not available.
Air Quality Not available.
Flu Activity Not available.
METAR SCEL 302100Z 18009KT 150V210 9999 FEW180 SCT230 24/04 Q1014 NOSIG

More Conditions Fewer Conditions

Pressure 29.95 in
Visibility 6.2 miles
Clouds Few 18000 ft
Scattered Clouds 23000 ft
Dew Point 39 °F
Humidity 27%
Rainfall 0.00 in
Snow Depth Not available.
UV 2 out of 12
Pollen Not available.
Air Quality Not available.
Flu Activity Not available.
METAR SCEL 302100Z 18009KT 150V210 9999 FEW180 SCT230 24/04 Q1014 NOSIG

More Conditions Fewer Conditions

10-Day Weather Forecast

Almanac

Astronomy

Oct. 01, 2014 Rise Set
Actual Time 7:23 AM CLST 7:48 PM CLST
Civil Twilight 6:58 AM CLST 8:13 PM CLST
Nautical Twilight 6:29 AM CLST 8:42 PM CLST
Astronomical Twilight 6:00 AM CLST 9:11 PM CLST
Moon 12:44 PM CLST 1:56 AM CLST
Length of Visible Light 13h 14m
Length of Day
12h 25m
Tomorrow will be 2m 1s longer.
Waxing Crescent, 51% of the Moon is Illuminated
Today
Waxing Crescent
Oct 8
Full
Oct 15
Last Quarter
Oct 23
New
Oct 30
First Quarter

Today's Extremes

Country Highs Country Lows

Community

WunderPhotos

Upload Photos

1,758,058 photos uploaded!

WunderBlogs® & News

By Dr. Jeff Masters
Director of Meteorology, Weather Underground
By Kari Strenfel
Meteorologist, Weather Underground
By Christopher C. Burt
Weather Historian, Weather Underground
October 1, 2014
October 1, 2014
October 1, 2014

Nearby

Snow Depth

Not available.

Earthquake Activity

City Distance Mag. Time & Date
No recent earthquake activity has been reported nearby.
Minimum magnitude displayed is 2.5.

Coastal Water Temperatures

Place Temperature
No Stations Reporting

Nearby Weather Stations